createdAt,value
2023-04-20T00:00:09.450Z,4.70
2023-04-20T00:01:15.995Z,4.70
2023-04-20T00:02:18.697Z,4.60
2023-04-20T00:03:24.242Z,4.70
2023-04-20T00:04:26.418Z,4.70
2023-04-20T00:05:30.262Z,4.70
2023-04-20T00:06:34.176Z,4.70
2023-04-20T00:07:38.771Z,4.70
2023-04-20T00:08:41.010Z,4.70
2023-04-20T00:09:44.012Z,4.80
2023-04-20T00:10:46.647Z,4.70
2023-04-20T00:11:50.312Z,4.70
2023-04-20T00:12:52.375Z,4.70
2023-04-20T00:13:55.766Z,4.70
2023-04-20T00:14:57.888Z,4.60
2023-04-20T00:16:00.815Z,4.70
2023-04-20T00:17:03.007Z,4.70
2023-04-20T00:18:06.460Z,4.70
2023-04-20T00:19:10.188Z,4.70
2023-04-20T00:20:14.238Z,4.70
2023-04-20T00:21:16.758Z,4.70
2023-04-20T00:22:19.820Z,4.70
2023-04-20T00:23:21.844Z,4.70
2023-04-20T00:24:25.445Z,4.70
2023-04-20T00:25:27.452Z,4.70
2023-04-20T00:26:30.940Z,4.70
2023-04-20T00:27:33.617Z,4.70
2023-04-20T00:28:36.709Z,4.70
2023-04-20T00:29:38.895Z,4.70
2023-04-20T00:30:42.090Z,4.70
2023-04-20T00:31:45.236Z,4.60
2023-04-20T00:32:50.641Z,4.70
2023-04-20T00:33:52.746Z,4.70
2023-04-20T00:34:57.322Z,4.70
2023-04-20T00:36:00.670Z,4.70
2023-04-20T00:37:02.775Z,4.70
2023-04-20T00:38:07.104Z,4.70
2023-04-20T00:39:09.425Z,4.70
2023-04-20T00:40:13.026Z,4.70
2023-04-20T00:41:17.427Z,4.60
2023-04-20T00:42:21.117Z,4.60
2023-04-20T00:43:23.464Z,4.60
2023-04-20T00:44:28.010Z,4.50
2023-04-20T00:45:30.144Z,4.50
2023-04-20T00:46:33.132Z,4.50
2023-04-20T00:47:35.752Z,4.50
2023-04-20T00:48:38.956Z,4.50
2023-04-20T00:49:41.029Z,4.40
2023-04-20T00:50:45.612Z,4.50
2023-04-20T00:51:47.659Z,4.50
2023-04-20T00:52:51.040Z,4.50
2023-04-20T00:53:53.379Z,4.50
2023-04-20T00:54:56.963Z,4.50
2023-04-20T00:55:59.146Z,4.50
2023-04-20T00:57:03.273Z,4.50
2023-04-20T00:58:05.715Z,4.50
2023-04-20T00:59:09.726Z,4.50
2023-04-20T01:00:12.642Z,4.50
2023-04-20T01:01:17.800Z,4.50
2023-04-20T01:02:21.611Z,4.60
2023-04-20T01:03:24.895Z,4.60
2023-04-20T01:04:27.315Z,4.50
2023-04-20T01:05:30.521Z,4.50
2023-04-20T01:06:35.008Z,4.50
2023-04-20T01:07:36.972Z,4.40
2023-04-20T01:08:47.745Z,4.40
2023-04-20T01:09:49.865Z,4.40
2023-04-20T01:10:52.906Z,4.40
2023-04-20T01:11:55.032Z,4.40
2023-04-20T01:12:58.029Z,4.40
2023-04-20T01:14:00.875Z,4.40
2023-04-20T01:15:05.764Z,4.40
2023-04-20T01:16:07.975Z,4.40
2023-04-20T01:17:11.030Z,4.40
2023-04-20T01:18:13.691Z,4.30
2023-04-20T01:19:17.373Z,4.40
2023-04-20T01:20:20.514Z,4.40
2023-04-20T01:21:24.164Z,4.40
2023-04-20T01:22:28.937Z,4.40
2023-04-20T01:23:35.926Z,4.40
2023-04-20T01:24:39.064Z,4.40
2023-04-20T01:25:42.586Z,4.40
2023-04-20T01:26:44.649Z,4.40
2023-04-20T01:27:51.710Z,4.40
2023-04-20T01:28:53.942Z,4.40
2023-04-20T01:29:57.046Z,4.30
2023-04-20T01:30:59.253Z,4.30
2023-04-20T01:32:02.531Z,4.30
2023-04-20T01:33:04.956Z,4.40
2023-04-20T01:34:07.971Z,4.40
2023-04-20T01:35:10.886Z,4.40
2023-04-20T01:36:14.316Z,4.30
2023-04-20T01:37:16.342Z,4.40
2023-04-20T01:38:21.188Z,4.40
2023-04-20T01:39:23.298Z,4.40
2023-04-20T01:40:26.328Z,4.30
2023-04-20T01:41:28.354Z,4.40
2023-04-20T01:42:33.149Z,4.40
2023-04-20T01:43:36.899Z,4.40
2023-04-20T01:44:41.210Z,4.40
2023-04-20T01:45:44.611Z,4.40
2023-04-20T01:46:48.987Z,4.40
2023-04-20T01:47:51.081Z,4.40
2023-04-20T01:48:54.252Z,4.40
2023-04-20T01:49:56.507Z,4.40
2023-04-20T01:51:01.504Z,4.40
2023-04-20T01:52:03.642Z,4.40
2023-04-20T01:53:06.708Z,4.40
2023-04-20T01:54:11.124Z,4.50
2023-04-20T01:55:13.196Z,4.50
2023-04-20T01:56:16.529Z,4.40
2023-04-20T01:57:18.770Z,4.50
2023-04-20T01:58:22.034Z,4.40
2023-04-20T01:59:24.137Z,4.40
2023-04-20T02:00:27.466Z,4.40
2023-04-20T02:01:29.655Z,4.40
2023-04-20T02:02:32.997Z,4.40
2023-04-20T02:03:37.197Z,4.40
2023-04-20T02:04:40.476Z,4.40
2023-04-20T02:05:42.586Z,4.40
2023-04-20T02:06:45.700Z,4.30
2023-04-20T02:07:47.923Z,4.30
2023-04-20T02:08:50.912Z,4.30
2023-04-20T02:09:54.336Z,4.30
2023-04-20T02:10:57.350Z,4.30
2023-04-20T02:11:59.470Z,4.30
2023-04-20T02:13:02.695Z,4.30
2023-04-20T02:14:07.022Z,4.30
2023-04-20T02:15:10.848Z,4.30
2023-04-20T02:16:13.023Z,4.30
2023-04-20T02:17:16.096Z,4.30
2023-04-20T02:18:18.211Z,4.30
2023-04-20T02:19:21.228Z,4.30
2023-04-20T02:20:24.247Z,4.30
2023-04-20T02:21:27.921Z,4.30
2023-04-20T02:22:29.910Z,4.30
2023-04-20T02:23:32.830Z,4.20
2023-04-20T02:24:35.000Z,4.20
2023-04-20T02:25:40.270Z,4.20
2023-04-20T02:26:42.332Z,4.20
2023-04-20T02:27:45.333Z,4.10
2023-04-20T02:28:47.305Z,4.10
2023-04-20T02:29:50.459Z,4.10
2023-04-20T02:30:52.773Z,4.10
2023-04-20T02:31:55.823Z,4.10
2023-04-20T02:32:58.798Z,4.00
2023-04-20T02:34:00.812Z,4.00
2023-04-20T02:35:04.246Z,4.00
2023-04-20T02:36:06.725Z,4.00
2023-04-20T02:37:09.770Z,3.90
2023-04-20T02:38:11.823Z,3.90
2023-04-20T02:39:15.923Z,3.90
2023-04-20T02:40:18.207Z,3.90
2023-04-20T02:41:22.649Z,3.90
2023-04-20T02:42:24.964Z,3.90
2023-04-20T02:43:28.171Z,3.90
2023-04-20T02:44:30.564Z,3.90
2023-04-20T02:45:33.619Z,3.90
2023-04-20T02:46:35.820Z,3.90
2023-04-20T02:47:39.026Z,3.90
2023-04-20T02:48:41.775Z,3.90
2023-04-20T02:49:45.422Z,3.90
2023-04-20T02:50:48.200Z,3.90
2023-04-20T02:51:54.886Z,3.90
2023-04-20T02:52:56.933Z,3.90
2023-04-20T02:54:00.143Z,3.90
2023-04-20T02:55:04.283Z,4.00
2023-04-20T02:56:07.653Z,4.00
2023-04-20T02:57:25.330Z,4.00
2023-04-20T02:58:28.569Z,4.00
2023-04-20T02:59:54.524Z,4.00
2023-04-20T03:01:01.661Z,4.00
2023-04-20T03:02:06.364Z,4.00
2023-04-20T03:03:10.099Z,4.00
2023-04-20T03:04:13.781Z,4.00
2023-04-20T03:05:24.547Z,4.00
2023-04-20T03:06:27.139Z,4.00
2023-04-20T03:07:33.113Z,4.00
2023-04-20T03:08:35.463Z,4.10
2023-04-20T03:09:55.500Z,4.10
2023-04-20T03:11:17.914Z,4.10
2023-04-20T03:12:22.288Z,4.10
2023-04-20T03:13:36.699Z,4.10
2023-04-20T03:14:40.123Z,4.10
2023-04-20T03:15:43.704Z,4.10
2023-04-20T03:17:09.867Z,4.10
2023-04-20T03:18:11.958Z,4.10
2023-04-20T03:19:15.327Z,4.10
2023-04-20T03:20:18.254Z,4.10
2023-04-20T03:21:21.666Z,4.10
2023-04-20T03:22:23.695Z,4.10
2023-04-20T03:23:30.733Z,4.20
2023-04-20T03:24:33.008Z,4.20
2023-04-20T03:25:39.573Z,4.10
2023-04-20T03:26:48.445Z,4.10
2023-04-20T03:27:56.423Z,4.20
2023-04-20T03:29:00.760Z,4.20
2023-04-20T03:30:03.169Z,4.20
2023-04-20T03:31:06.639Z,4.20
2023-04-20T03:32:09.256Z,4.20
2023-04-20T03:33:12.403Z,4.10
2023-04-20T03:34:14.540Z,4.20
2023-04-20T03:35:18.252Z,4.20
2023-04-20T03:36:21.421Z,4.20
2023-04-20T03:37:23.525Z,4.20
2023-04-20T03:38:26.727Z,4.20
2023-04-20T03:39:28.860Z,4.20
2023-04-20T03:40:32.016Z,4.20
2023-04-20T03:41:34.190Z,4.20
2023-04-20T03:42:38.187Z,4.20
2023-04-20T03:43:41.654Z,4.20
2023-04-20T03:44:47.233Z,4.10
2023-04-20T03:45:49.715Z,4.10
2023-04-20T03:46:54.062Z,4.10
2023-04-20T03:47:56.107Z,4.10
2023-04-20T03:49:00.847Z,4.00
2023-04-20T03:50:03.277Z,4.00
2023-04-20T03:51:06.457Z,4.00
2023-04-20T03:52:09.126Z,4.00
2023-04-20T03:53:12.234Z,4.00
2023-04-20T03:54:14.281Z,4.00
2023-04-20T03:55:17.778Z,4.00
2023-04-20T03:56:27.290Z,4.00
2023-04-20T03:57:31.019Z,3.90
2023-04-20T03:58:33.032Z,4.00
2023-04-20T03:59:49.264Z,3.90
2023-04-20T04:01:02.626Z,3.90
2023-04-20T04:02:05.882Z,3.90
2023-04-20T04:03:10.024Z,3.90
2023-04-20T04:04:12.577Z,3.90
2023-04-20T04:05:15.879Z,3.90
2023-04-20T04:06:18.081Z,3.90
2023-04-20T04:07:21.293Z,3.90
2023-04-20T04:08:24.288Z,3.90
2023-04-20T04:09:27.610Z,4.00
2023-04-20T04:10:29.606Z,3.90
2023-04-20T04:11:32.616Z,3.90
2023-04-20T04:12:35.145Z,3.90
2023-04-20T04:13:38.173Z,3.90
2023-04-20T04:14:42.779Z,3.90
2023-04-20T04:15:49.773Z,3.90
2023-04-20T04:16:52.269Z,3.90
2023-04-20T04:17:56.029Z,3.90
2023-04-20T04:18:59.410Z,3.90
2023-04-20T04:20:01.963Z,3.90
2023-04-20T04:21:06.692Z,3.90
2023-04-20T04:22:10.683Z,3.90
2023-04-20T04:23:21.697Z,3.90
2023-04-20T04:24:28.316Z,3.90
2023-04-20T04:25:42.240Z,3.90
2023-04-20T04:26:46.569Z,3.90
2023-04-20T04:27:49.685Z,3.90
2023-04-20T04:28:51.815Z,3.90
2023-04-20T04:29:56.673Z,3.90
2023-04-20T04:31:01.506Z,3.90
2023-04-20T04:32:05.232Z,3.90
2023-04-20T04:33:07.724Z,3.90
2023-04-20T04:34:13.722Z,3.90
2023-04-20T04:35:20.605Z,3.90
2023-04-20T04:36:27.002Z,3.90
2023-04-20T04:37:31.519Z,3.90
2023-04-20T04:38:34.724Z,3.90
2023-04-20T04:39:37.424Z,3.90
2023-04-20T04:40:47.718Z,3.90
2023-04-20T04:41:49.776Z,3.90
2023-04-20T04:43:04.019Z,3.90
2023-04-20T04:44:06.592Z,3.90
2023-04-20T04:45:13.589Z,3.90
2023-04-20T04:46:18.349Z,3.90
2023-04-20T04:47:22.032Z,3.90
2023-04-20T04:48:25.014Z,3.90
2023-04-20T04:49:29.275Z,3.90
2023-04-20T04:50:31.398Z,4.00
2023-04-20T04:51:34.576Z,3.90
2023-04-20T04:52:36.997Z,3.90
2023-04-20T04:53:40.046Z,3.90
2023-04-20T04:54:42.283Z,3.90
2023-04-20T04:55:46.508Z,3.90
2023-04-20T04:56:48.539Z,3.90
2023-04-20T04:57:51.520Z,3.90
2023-04-20T04:58:53.532Z,3.90
2023-04-20T04:59:56.513Z,3.90
2023-04-20T05:00:58.502Z,3.90
2023-04-20T05:02:02.918Z,3.90
2023-04-20T05:03:05.503Z,4.00
2023-04-20T05:04:08.881Z,3.90
2023-04-20T05:05:11.569Z,3.90
2023-04-20T05:06:14.623Z,3.90
2023-04-20T05:07:17.332Z,3.90
2023-04-20T05:08:20.381Z,4.00
2023-04-20T05:09:22.437Z,3.90
2023-04-20T05:10:25.585Z,4.00
2023-04-20T05:11:27.750Z,4.00
2023-04-20T05:12:30.783Z,3.90
2023-04-20T05:13:32.800Z,3.90
2023-04-20T05:14:35.923Z,4.00
2023-04-20T05:15:37.957Z,4.00
2023-04-20T05:16:41.402Z,4.00
2023-04-20T05:17:45.009Z,4.00
2023-04-20T05:18:47.986Z,4.00
2023-04-20T05:19:49.973Z,4.00
2023-04-20T05:20:53.185Z,4.00
2023-04-20T05:21:55.520Z,4.00
2023-04-20T05:22:58.497Z,4.00
2023-04-20T05:24:00.625Z,4.00
2023-04-20T05:25:03.735Z,4.10
2023-04-20T05:26:06.398Z,4.00
2023-04-20T05:27:11.223Z,4.00
2023-04-20T05:28:13.350Z,4.00
2023-04-20T05:29:17.588Z,4.00
2023-04-20T05:30:22.135Z,4.00
2023-04-20T05:31:24.470Z,4.00
2023-04-20T05:32:27.672Z,4.00
2023-04-20T05:33:31.129Z,4.00
2023-04-20T05:34:34.096Z,4.00
2023-04-20T05:35:36.318Z,4.00
2023-04-20T05:36:40.625Z,4.00
2023-04-20T05:37:42.668Z,4.10
2023-04-20T05:38:45.872Z,4.10
2023-04-20T05:39:47.947Z,4.10
2023-04-20T05:40:51.065Z,4.00
2023-04-20T05:41:53.286Z,4.00
2023-04-20T05:42:56.329Z,4.00
2023-04-20T05:43:58.318Z,4.00
2023-04-20T05:45:01.290Z,4.00
2023-04-20T05:46:04.461Z,4.00
2023-04-20T05:47:08.544Z,4.00
2023-04-20T05:48:11.826Z,3.90
2023-04-20T05:49:15.586Z,4.00
2023-04-20T05:50:18.869Z,4.00
2023-04-20T05:51:21.985Z,3.90
2023-04-20T05:52:24.946Z,3.90
2023-04-20T05:53:27.020Z,3.90
2023-04-20T05:54:30.225Z,3.90
2023-04-20T05:55:32.237Z,3.90
2023-04-20T05:56:35.463Z,3.90
2023-04-20T05:57:42.638Z,3.90
2023-04-20T05:58:45.836Z,4.00
2023-04-20T05:59:47.975Z,4.00
2023-04-20T06:00:51.017Z,4.00
2023-04-20T06:01:53.004Z,4.10
2023-04-20T06:02:56.220Z,4.10
2023-04-20T06:03:58.493Z,4.10
2023-04-20T06:05:03.688Z,4.10
2023-04-20T06:06:07.256Z,4.10
2023-04-20T06:07:09.938Z,4.10
2023-04-20T06:08:13.092Z,4.10
2023-04-20T06:09:15.369Z,4.10
2023-04-20T06:10:18.716Z,4.10
2023-04-20T06:11:20.903Z,4.10
2023-04-20T06:12:25.685Z,4.10
2023-04-20T06:13:29.645Z,4.10
2023-04-20T06:14:31.706Z,4.10
2023-04-20T06:15:34.827Z,4.20
2023-04-20T06:16:37.027Z,4.20
2023-04-20T06:17:40.889Z,4.20
2023-04-20T06:18:43.396Z,4.20
2023-04-20T06:19:47.520Z,4.20
2023-04-20T06:20:51.315Z,4.20
2023-04-20T06:21:54.916Z,4.20
2023-04-20T06:22:57.243Z,4.20
2023-04-20T06:24:00.848Z,4.10
2023-04-20T06:25:03.732Z,4.20
2023-04-20T06:26:09.736Z,4.10
2023-04-20T06:27:12.120Z,4.10
2023-04-20T06:28:15.255Z,4.00
2023-04-20T06:29:17.871Z,4.00
2023-04-20T06:30:21.173Z,4.00
2023-04-20T06:31:23.491Z,4.10
2023-04-20T06:32:26.947Z,4.10
2023-04-20T06:33:29.453Z,4.10
2023-04-20T06:34:32.644Z,4.10
2023-04-20T06:35:35.015Z,4.10
2023-04-20T06:36:42.750Z,4.10
2023-04-20T06:37:46.405Z,4.10
2023-04-20T06:38:48.367Z,4.10
2023-04-20T06:39:54.850Z,4.20
2023-04-20T06:40:59.069Z,4.20
2023-04-20T06:42:02.623Z,4.10
2023-04-20T06:43:04.767Z,4.20
2023-04-20T06:44:07.849Z,4.20
2023-04-20T06:45:10.971Z,4.20
2023-04-20T06:46:14.089Z,4.20
2023-04-20T06:47:16.250Z,4.20
2023-04-20T06:48:31.668Z,4.20
2023-04-20T06:49:36.664Z,4.20
2023-04-20T06:50:40.521Z,4.20
2023-04-20T06:51:44.012Z,4.10
2023-04-20T06:52:48.220Z,4.20
2023-04-20T06:53:51.205Z,4.20
2023-04-20T06:54:53.323Z,4.20
2023-04-20T06:55:56.474Z,4.20
2023-04-20T06:56:58.457Z,4.20
2023-04-20T06:58:01.376Z,4.20
2023-04-20T06:59:04.362Z,4.20
2023-04-20T07:00:10.279Z,4.20
2023-04-20T07:01:13.342Z,4.20
2023-04-20T07:02:15.494Z,4.20
2023-04-20T07:03:19.764Z,4.20
2023-04-20T07:04:22.371Z,4.20
2023-04-20T07:05:28.647Z,4.20
2023-04-20T07:06:32.021Z,4.20
2023-04-20T07:07:35.871Z,4.30
2023-04-20T07:08:40.254Z,4.30
2023-04-20T07:09:43.809Z,4.40
2023-04-20T07:10:45.938Z,4.40
2023-04-20T07:11:49.125Z,4.40
2023-04-20T07:12:52.295Z,4.30
2023-04-20T07:13:54.294Z,4.30
2023-04-20T07:14:58.538Z,4.30
2023-04-20T07:16:02.283Z,4.40
2023-04-20T07:17:04.382Z,4.30
2023-04-20T07:18:07.654Z,4.30
2023-04-20T07:19:10.800Z,4.30
2023-04-20T07:20:12.943Z,4.30
2023-04-20T07:21:16.190Z,4.30
2023-04-20T07:22:18.289Z,4.30
2023-04-20T07:23:22.643Z,4.30
2023-04-20T07:24:24.902Z,4.30
2023-04-20T07:25:28.021Z,4.30
2023-04-20T07:26:30.228Z,4.30
2023-04-20T07:27:37.139Z,4.30
2023-04-20T07:28:40.218Z,4.30
2023-04-20T07:29:42.250Z,4.40
2023-04-20T07:30:45.593Z,4.40
2023-04-20T07:31:47.705Z,4.40
2023-04-20T07:32:51.008Z,4.30
2023-04-20T07:33:53.451Z,4.30
2023-04-20T07:34:56.608Z,4.30
2023-04-20T07:36:00.191Z,4.30
2023-04-20T07:37:02.237Z,4.30
2023-04-20T07:38:05.334Z,4.30
2023-04-20T07:39:09.846Z,4.30
2023-04-20T07:40:12.236Z,4.40
2023-04-20T07:41:15.917Z,4.30
2023-04-20T07:42:18.264Z,4.40
2023-04-20T07:43:24.128Z,4.40
2023-04-20T07:44:27.202Z,4.40
2023-04-20T07:45:29.731Z,4.40
2023-04-20T07:46:32.710Z,4.30
2023-04-20T07:47:35.394Z,4.30
2023-04-20T07:48:38.620Z,4.30
2023-04-20T07:49:41.708Z,4.30
2023-04-20T07:50:44.867Z,4.40
2023-04-20T07:51:46.928Z,4.40
2023-04-20T07:52:49.954Z,4.40
2023-04-20T07:53:52.119Z,4.30
2023-04-20T07:54:57.966Z,4.30
2023-04-20T07:56:01.048Z,4.30
2023-04-20T07:57:03.445Z,4.30
2023-04-20T07:58:06.584Z,4.30
2023-04-20T07:59:08.739Z,4.40
2023-04-20T08:00:13.405Z,4.40
2023-04-20T08:01:15.878Z,4.40
2023-04-20T08:02:19.158Z,4.40
2023-04-20T08:03:22.371Z,4.40
2023-04-20T08:04:24.973Z,4.40
2023-04-20T08:05:29.024Z,4.40
2023-04-20T08:06:31.875Z,4.50
2023-04-20T08:07:34.908Z,4.40
2023-04-20T08:08:37.934Z,4.40
2023-04-20T08:09:40.100Z,4.40
2023-04-20T08:10:44.500Z,4.40
2023-04-20T08:11:46.806Z,4.40
2023-04-20T08:12:52.451Z,4.40
2023-04-20T08:13:57.238Z,4.40
2023-04-20T08:15:04.311Z,4.40
2023-04-20T08:16:07.624Z,4.40
2023-04-20T08:17:10.833Z,4.40
2023-04-20T08:18:12.949Z,4.50
2023-04-20T08:19:16.127Z,4.50
2023-04-20T08:20:18.434Z,4.40
2023-04-20T08:21:25.477Z,4.40
2023-04-20T08:22:30.182Z,4.50
2023-04-20T08:23:33.429Z,4.50
2023-04-20T08:24:35.708Z,4.40
2023-04-20T08:25:40.216Z,4.50
2023-04-20T08:26:44.664Z,4.50
2023-04-20T08:27:47.775Z,4.40
2023-04-20T08:28:51.257Z,4.50
2023-04-20T08:29:53.322Z,4.50
2023-04-20T08:30:56.471Z,4.50
2023-04-20T08:31:59.851Z,4.40
2023-04-20T08:33:02.058Z,4.50
2023-04-20T08:34:05.133Z,4.50
2023-04-20T08:35:08.554Z,4.50
2023-04-20T08:36:12.004Z,4.50
2023-04-20T08:37:14.261Z,4.60
2023-04-20T08:38:20.815Z,4.60
2023-04-20T08:39:27.002Z,4.60
2023-04-20T08:40:30.718Z,4.60
2023-04-20T08:41:33.930Z,4.60
2023-04-20T08:42:38.581Z,4.60
2023-04-20T08:43:41.081Z,4.60
2023-04-20T08:44:44.369Z,4.60
2023-04-20T08:45:49.764Z,4.70
2023-04-20T08:46:53.023Z,4.70
2023-04-20T08:47:59.277Z,4.70
2023-04-20T08:49:01.797Z,4.80
2023-04-20T08:50:06.279Z,4.70
2023-04-20T08:51:08.407Z,4.80
2023-04-20T08:52:13.288Z,4.80
2023-04-20T08:53:15.656Z,4.80
2023-04-20T08:54:18.936Z,4.80
2023-04-20T08:55:22.191Z,4.80
2023-04-20T08:56:36.196Z,4.80
2023-04-20T08:57:41.554Z,4.80
2023-04-20T08:58:43.816Z,4.70
2023-04-20T08:59:46.791Z,4.80
2023-04-20T09:00:50.406Z,4.70
2023-04-20T09:01:52.769Z,4.80
2023-04-20T09:02:58.910Z,4.80
2023-04-20T09:04:01.456Z,4.80
2023-04-20T09:05:05.998Z,4.90
2023-04-20T09:06:17.498Z,4.90
2023-04-20T09:07:21.955Z,4.90
2023-04-20T09:08:35.082Z,4.90
2023-04-20T09:09:38.699Z,4.90
2023-04-20T09:10:42.507Z,4.90
2023-04-20T09:11:46.733Z,5.00
2023-04-20T09:12:51.649Z,5.00
2023-04-20T09:13:59.278Z,5.00
2023-04-20T09:15:03.901Z,5.10
2023-04-20T09:16:13.671Z,5.00
2023-04-20T09:17:18.274Z,5.00
2023-04-20T09:18:20.352Z,5.00
2023-04-20T09:19:24.579Z,5.00
2023-04-20T09:20:30.872Z,5.00
2023-04-20T09:21:34.061Z,5.00
2023-04-20T09:22:37.774Z,5.00
2023-04-20T09:23:41.993Z,5.00
2023-04-20T09:24:45.757Z,5.10
2023-04-20T09:25:53.013Z,5.10
2023-04-20T09:26:56.802Z,5.20
2023-04-20T09:28:01.879Z,5.20
2023-04-20T09:29:05.827Z,5.30
2023-04-20T09:30:09.696Z,5.20
2023-04-20T09:31:19.421Z,5.30
2023-04-20T09:32:23.987Z,5.30
2023-04-20T09:33:29.559Z,5.30
2023-04-20T09:34:32.629Z,5.30
2023-04-20T09:35:34.652Z,5.30
2023-04-20T09:36:39.224Z,5.30
2023-04-20T09:37:48.038Z,5.30
2023-04-20T09:39:03.714Z,5.40
2023-04-20T09:40:07.668Z,5.40
2023-04-20T09:41:11.055Z,5.40
2023-04-20T09:42:15.716Z,5.40
2023-04-20T09:43:23.888Z,5.50
2023-04-20T09:44:26.924Z,5.50
2023-04-20T09:45:29.288Z,5.50
2023-04-20T09:46:34.355Z,5.50
2023-04-20T09:47:37.114Z,5.60
2023-04-20T09:48:40.376Z,5.50
2023-04-20T09:49:45.766Z,5.50
2023-04-20T09:50:50.611Z,5.50
2023-04-20T09:51:55.179Z,5.50
2023-04-20T09:52:57.990Z,5.50
2023-04-20T09:54:02.247Z,5.50
2023-04-20T09:55:07.502Z,5.60
2023-04-20T09:56:11.484Z,5.60
2023-04-20T09:57:14.743Z,5.60
2023-04-20T09:58:21.255Z,5.60
2023-04-20T09:59:24.221Z,5.60
2023-04-20T10:00:27.375Z,5.70
2023-04-20T10:01:33.708Z,5.70
2023-04-20T10:02:36.226Z,5.70
2023-04-20T10:03:42.875Z,5.70
2023-04-20T10:04:54.428Z,5.70
2023-04-20T10:05:57.831Z,5.60
2023-04-20T10:07:03.724Z,5.60
2023-04-20T10:08:07.303Z,5.60
2023-04-20T10:09:11.008Z,5.70
2023-04-20T10:10:14.807Z,5.70
2023-04-20T10:11:37.064Z,5.70
2023-04-20T10:12:48.377Z,5.60
2023-04-20T10:13:52.793Z,5.60
2023-04-20T10:14:55.809Z,5.60
2023-04-20T10:15:59.062Z,5.50
2023-04-20T10:17:02.726Z,5.40
2023-04-20T10:18:18.048Z,5.50
2023-04-20T10:19:21.332Z,5.50
2023-04-20T10:20:25.497Z,5.50
2023-04-20T10:21:29.151Z,5.50
2023-04-20T10:22:33.322Z,5.50
2023-04-20T10:23:36.777Z,5.40
2023-04-20T10:24:39.138Z,5.50
2023-04-20T10:25:42.412Z,5.50
2023-04-20T10:26:47.167Z,5.40
2023-04-20T10:27:59.600Z,5.40
2023-04-20T10:29:04.416Z,5.40
2023-04-20T10:30:11.633Z,5.50
2023-04-20T10:31:15.333Z,5.50
2023-04-20T10:32:26.026Z,5.50
2023-04-20T10:33:28.347Z,5.40
2023-04-20T10:34:32.206Z,5.40
2023-04-20T10:35:47.944Z,5.40
2023-04-20T10:36:51.060Z,5.40
2023-04-20T10:37:53.120Z,5.40
2023-04-20T10:38:56.127Z,5.50
2023-04-20T10:39:58.878Z,5.50
2023-04-20T10:41:08.213Z,5.60
2023-04-20T10:42:10.527Z,5.60
2023-04-20T10:43:22.366Z,5.70
2023-04-20T10:44:26.940Z,5.70
2023-04-20T10:45:36.362Z,5.70
2023-04-20T10:46:39.529Z,5.70
2023-04-20T10:47:41.959Z,5.70
2023-04-20T10:48:53.022Z,5.70
2023-04-20T10:49:56.962Z,5.80
2023-04-20T10:51:10.361Z,5.70
2023-04-20T10:52:14.168Z,5.80
2023-04-20T10:53:20.581Z,5.80
2023-04-20T10:54:23.682Z,5.80
2023-04-20T10:55:26.883Z,5.80
2023-04-20T10:56:38.347Z,5.90
2023-04-20T10:57:48.529Z,5.90
2023-04-20T10:58:50.931Z,6.00
2023-04-20T10:59:55.467Z,5.90
2023-04-20T11:00:59.387Z,5.90
2023-04-20T11:02:02.542Z,5.90
2023-04-20T11:03:05.750Z,5.90
2023-04-20T11:04:08.061Z,6.00
2023-04-20T11:05:14.708Z,6.00
2023-04-20T11:06:17.393Z,5.90
2023-04-20T11:07:20.922Z,6.00
2023-04-20T11:08:23.084Z,6.00
2023-04-20T11:09:28.392Z,6.00
2023-04-20T11:10:38.565Z,6.10
2023-04-20T11:11:41.515Z,6.10
2023-04-20T11:12:43.778Z,5.90
2023-04-20T11:13:47.097Z,6.00
2023-04-20T11:15:00.340Z,6.00
2023-04-20T11:16:11.147Z,6.00
2023-04-20T11:17:14.459Z,6.00
2023-04-20T11:18:18.619Z,6.00
2023-04-20T11:19:27.481Z,6.00
2023-04-20T11:20:29.611Z,6.00
2023-04-20T11:21:39.948Z,6.10
2023-04-20T11:22:44.213Z,6.10
2023-04-20T11:23:46.592Z,6.10
2023-04-20T11:24:50.207Z,6.00
2023-04-20T11:25:53.058Z,6.00
2023-04-20T11:26:58.165Z,6.10
2023-04-20T11:28:07.744Z,6.00
2023-04-20T11:29:11.664Z,6.00
2023-04-20T11:30:15.296Z,6.00
2023-04-20T11:31:18.673Z,6.00
2023-04-20T11:32:22.147Z,6.00
2023-04-20T11:33:29.156Z,6.00
2023-04-20T11:34:33.884Z,5.90
2023-04-20T11:35:37.760Z,5.90
2023-04-20T11:36:41.775Z,6.00
2023-04-20T11:37:48.955Z,6.00
2023-04-20T11:38:52.387Z,6.10
2023-04-20T11:40:01.488Z,6.10
2023-04-20T11:41:07.650Z,6.20
2023-04-20T11:42:10.865Z,6.40
2023-04-20T11:43:13.312Z,6.60
2023-04-20T11:44:16.371Z,6.70
2023-04-20T11:45:19.827Z,6.80
2023-04-20T11:46:22.848Z,7.00
2023-04-20T11:47:25.847Z,7.00
2023-04-20T11:48:31.177Z,7.10
2023-04-20T11:49:34.409Z,7.00
2023-04-20T11:50:38.257Z,7.10
2023-04-20T11:51:41.960Z,7.00
2023-04-20T11:52:44.249Z,7.00
2023-04-20T11:53:47.586Z,7.00
2023-04-20T11:54:49.733Z,7.00
2023-04-20T11:55:52.817Z,6.90
2023-04-20T11:56:54.906Z,6.90
2023-04-20T11:57:57.899Z,6.60
2023-04-20T11:59:00.111Z,6.60
2023-04-20T12:00:04.399Z,6.60
2023-04-20T12:01:18.619Z,6.60
2023-04-20T12:02:20.734Z,6.60
2023-04-20T12:03:28.357Z,6.60
2023-04-20T12:04:33.084Z,6.50
2023-04-20T12:05:37.199Z,6.60
2023-04-20T12:06:40.438Z,6.60
2023-04-20T12:07:43.291Z,6.70
2023-04-20T12:08:48.009Z,6.70
2023-04-20T12:09:49.974Z,6.80
2023-04-20T12:10:52.922Z,6.70
2023-04-20T12:11:54.940Z,6.80
2023-04-20T12:12:59.934Z,6.80
2023-04-20T12:14:02.166Z,6.80
2023-04-20T12:15:05.952Z,6.80
2023-04-20T12:16:09.362Z,6.80
2023-04-20T12:17:12.714Z,6.80
2023-04-20T12:18:15.762Z,6.80
2023-04-20T12:19:17.991Z,6.70
2023-04-20T12:20:21.412Z,6.60
2023-04-20T12:21:23.429Z,6.60
2023-04-20T12:22:26.493Z,6.50
2023-04-20T12:23:29.519Z,6.50
2023-04-20T12:24:31.516Z,6.50
2023-04-20T12:25:34.555Z,6.50
2023-04-20T12:26:38.808Z,6.60
2023-04-20T12:27:42.027Z,6.60
2023-04-20T12:28:45.211Z,6.60
2023-04-20T12:29:48.516Z,6.60
2023-04-20T12:30:50.574Z,6.60
2023-04-20T12:31:53.738Z,6.70
2023-04-20T12:32:57.191Z,6.70
2023-04-20T12:34:00.226Z,6.80
2023-04-20T12:35:02.678Z,6.80
2023-04-20T12:36:06.250Z,6.80
2023-04-20T12:37:08.285Z,6.80
2023-04-20T12:38:13.301Z,6.80
2023-04-20T12:39:16.788Z,6.80
2023-04-20T12:40:20.328Z,6.80
2023-04-20T12:41:23.143Z,6.70
2023-04-20T12:42:26.135Z,6.70
2023-04-20T12:43:28.597Z,6.70
2023-04-20T12:44:31.802Z,6.70
2023-04-20T12:45:34.340Z,6.70
2023-04-20T12:46:37.452Z,6.70
2023-04-20T12:47:40.742Z,6.80
2023-04-20T12:48:45.812Z,6.80
2023-04-20T12:49:48.823Z,6.80
2023-04-20T12:50:51.094Z,6.80
2023-04-20T12:51:54.304Z,6.80
2023-04-20T12:52:58.259Z,6.80
2023-04-20T12:54:01.409Z,6.70
2023-04-20T12:55:04.750Z,6.70
2023-04-20T12:56:08.502Z,6.70
2023-04-20T12:57:10.884Z,6.60
2023-04-20T12:58:16.133Z,6.60
2023-04-20T12:59:18.154Z,6.70
2023-04-20T13:00:21.748Z,6.80
2023-04-20T13:01:24.897Z,6.80
2023-04-20T13:02:27.156Z,6.80
2023-04-20T13:03:30.531Z,6.80
2023-04-20T13:04:36.271Z,6.90
2023-04-20T13:05:39.385Z,6.80
2023-04-20T13:06:41.438Z,6.80
2023-04-20T13:07:44.967Z,6.80
2023-04-20T13:08:47.133Z,6.90
2023-04-20T13:09:50.181Z,6.90
2023-04-20T13:10:54.561Z,6.90
2023-04-20T13:11:57.784Z,6.90
2023-04-20T13:13:01.793Z,6.90
2023-04-20T13:14:04.994Z,6.90
2023-04-20T13:15:09.728Z,6.90
2023-04-20T13:16:11.909Z,7.00
2023-04-20T13:17:15.852Z,6.90
2023-04-20T13:18:18.295Z,7.00
2023-04-20T13:19:21.485Z,7.10
2023-04-20T13:20:29.275Z,7.10
2023-04-20T13:21:33.054Z,7.20
2023-04-20T13:22:41.127Z,7.30
2023-04-20T13:23:54.763Z,7.20
2023-04-20T13:24:59.342Z,7.20
2023-04-20T13:26:01.711Z,7.20
2023-04-20T13:27:04.960Z,7.30
2023-04-20T13:28:06.994Z,7.20
2023-04-20T13:29:10.047Z,7.30
2023-04-20T13:30:13.442Z,7.30
2023-04-20T13:31:16.515Z,7.20
2023-04-20T13:32:18.600Z,7.20
2023-04-20T13:33:22.386Z,7.20
2023-04-20T13:34:25.373Z,7.30
2023-04-20T13:35:29.164Z,7.20
2023-04-20T13:36:32.698Z,7.20
2023-04-20T13:37:37.903Z,7.20
2023-04-20T13:38:42.140Z,7.20
2023-04-20T13:39:44.356Z,7.20
2023-04-20T13:40:48.269Z,7.20
2023-04-20T13:41:50.669Z,7.20
2023-04-20T13:42:53.646Z,7.20
2023-04-20T13:43:57.707Z,7.20
2023-04-20T13:45:00.754Z,7.20
2023-04-20T13:46:03.743Z,7.30
2023-04-20T13:47:06.808Z,7.30
2023-04-20T13:48:09.993Z,7.40
2023-04-20T13:49:13.509Z,7.50
2023-04-20T13:50:17.579Z,7.50
2023-04-20T13:51:21.499Z,7.60
2023-04-20T13:52:24.881Z,7.60
2023-04-20T13:53:28.750Z,7.60
2023-04-20T13:54:31.785Z,7.60
2023-04-20T13:55:34.791Z,7.60
2023-04-20T13:56:36.898Z,7.60
2023-04-20T13:57:39.922Z,7.60
2023-04-20T13:58:42.075Z,7.60
2023-04-20T13:59:45.045Z,7.60
2023-04-20T14:00:47.076Z,7.50
2023-04-20T14:01:50.175Z,7.50
2023-04-20T14:02:52.364Z,7.50
2023-04-20T14:03:56.675Z,7.50
2023-04-20T14:04:58.880Z,7.50
2023-04-20T14:06:02.009Z,7.50
2023-04-20T14:07:06.945Z,7.40
2023-04-20T14:08:08.991Z,7.40
2023-04-20T14:09:12.473Z,7.30
2023-04-20T14:10:15.193Z,7.30
2023-04-20T14:11:18.166Z,7.30